Time;durP1;ratioP1;P1;durP2;ratioP2;P2;SDS_P1;SDS_P2;PMS_P1;PMS_P2;Temp;Humidity;BMP_temperature;BMP_pressure;BME280_temperature;BME280_humidity;BME280_pressure;Samples;Min_cycle;Max_cycle;Signal;HPM_P1;HPM_P2
2021/12/29 00:01:25;;;;;;;;;;;;;;;4.69;69.85;99029.09;4461126;32;33943;-64
2021/12/29 00:03:53;;;;;;;;;;;;;;;4.53;70.33;99031.56;4464888;32;34030;-66
2021/12/29 00:06:20;;;;;;;;;;;;;;;4.31;70.78;99035.50;4465574;32;33834;-65
2021/12/29 00:08:47;;;;;;;;;;;;;;;4.07;71.64;99036.62;4456138;32;34294;-64
2021/12/29 00:11:15;;;;;;;;;;;;;;;3.92;72.43;99039.19;4437716;32;781462;-64
2021/12/29 00:13:42;;;;;;;;;;;;;;;3.93;72.82;99035.84;4456045;32;33201;-64
2021/12/29 00:16:09;;;;;;;;;;;;;;;4.16;71.90;99032.06;4464558;32;33999;-65
2021/12/29 00:18:37;;;;;;;;;;;;;;;4.53;70.49;99035.00;4444992;32;31754;-66
2021/12/29 00:21:05;;;;;;;;;;;;;;;3.63;73.59;99038.38;4467628;32;33734;-63
2021/12/29 00:23:32;;;;;;;;;;;;;;;4.30;71.61;99030.28;4451811;32;31947;-65
2021/12/29 00:26:20;;;;;;;;;;;;;;;4.26;71.54;99033.47;4458372;32;34143;-66
2021/12/29 00:28:47;;;;;;;;;;;;;;;4.47;70.52;99031.25;4467929;32;34059;-64
2021/12/29 00:31:14;;;;;;;;;;;;;;;4.63;70.34;99022.72;4467854;32;34160;-64
2021/12/29 00:34:00;;;;;;;;;;;;;;;4.67;70.00;99014.38;4462213;32;31575;-64
2021/12/29 00:36:32;;;;;;;;;;;;;;;4.75;69.57;99013.13;4449461;32;34445;-66
2021/12/29 00:39:11;;;;;;;;;;;;;;;4.59;70.15;99015.66;4470610;32;32691;-66
2021/12/29 00:41:40;;;;;;;;;;;;;;;4.43;70.75;99004.53;4469126;32;32365;-65
2021/12/29 00:44:11;;;;;;;;;;;;;;;4.22;71.60;99003.31;4462680;32;32504;-65
2021/12/29 00:46:39;;;;;;;;;;;;;;;4.42;70.72;99005.31;4459159;32;33883;-65
2021/12/29 00:49:08;;;;;;;;;;;;;;;4.22;71.33;99016.16;4467426;32;34741;-65
2021/12/29 00:51:35;;;;;;;;;;;;;;;4.50;70.71;99000.63;4467327;32;34686;-65
2021/12/29 00:54:03;;;;;;;;;;;;;;;4.40;70.92;99003.47;4463968;32;33232;-66
2021/12/29 00:56:30;;;;;;;;;;;;;;;4.41;70.72;99006.12;4450407;32;34296;-66
2021/12/29 00:58:58;;;;;;;;;;;;;;;4.41;70.66;99005.25;4457688;32;34106;-65
2021/12/29 01:01:25;;;;;;;;;;;;;;;4.88;69.01;99000.16;4467017;32;33896;-66
2021/12/29 01:03:53;;;;;;;;;;;;;;;4.68;69.94;99003.34;4470429;32;33609;-67
2021/12/29 01:06:20;;;;;;;;;;;;;;;4.58;70.03;98998.47;4466053;32;34838;-65
2021/12/29 01:08:47;;;;;;;;;;;;;;;4.44;70.52;98993.50;4470774;32;33936;-65
2021/12/29 01:11:14;;;;;;;;;;;;;;;4.64;69.97;98993.72;4464889;32;34962;-65
2021/12/29 01:13:47;;;;;;;;;;;;;;;4.64;69.97;98983.44;4469927;32;33381;-64
2021/12/29 01:16:36;;;;;;;;;;;;;;;4.75;69.43;98982.31;4463878;32;33932;-67
2021/12/29 01:19:05;;;;;;;;;;;;;;;4.69;69.80;98992.25;4467987;32;34829;-65
2021/12/29 01:21:33;;;;;;;;;;;;;;;4.96;68.67;98986.87;4458453;32;34138;-66
2021/12/29 01:24:01;;;;;;;;;;;;;;;4.63;69.95;98985.09;4468775;32;33483;-67
2021/12/29 01:26:28;;;;;;;;;;;;;;;4.63;70.08;98984.22;4468733;32;33966;-65
2021/12/29 01:28:56;;;;;;;;;;;;;;;4.70;69.90;98978.66;4463903;32;33934;-64
2021/12/29 01:31:23;;;;;;;;;;;;;;;4.64;70.13;98973.19;4463288;32;34191;-66
2021/12/29 01:33:50;;;;;;;;;;;;;;;4.71;69.71;98971.03;4469156;32;32405;-66
2021/12/29 01:36:17;;;;;;;;;;;;;;;4.44;70.31;98975.53;4466736;32;34812;-66
2021/12/29 01:38:44;;;;;;;;;;;;;;;4.08;71.98;98992.28;4465935;32;32679;-66
2021/12/29 01:41:12;;;;;;;;;;;;;;;3.69;73.50;99000.31;4461329;32;34328;-64
2021/12/29 01:43:39;;;;;;;;;;;;;;;4.13;72.09;98994.31;4462127;32;34159;-66
2021/12/29 01:46:06;;;;;;;;;;;;;;;4.47;70.52;98996.22;4462122;32;34158;-67
2021/12/29 01:48:34;;;;;;;;;;;;;;;4.42;70.83;98995.06;4463657;32;33975;-65
2021/12/29 01:51:01;;;;;;;;;;;;;;;4.30;71.00;98996.94;4445253;32;34227;-64
2021/12/29 01:53:31;;;;;;;;;;;;;;;4.11;71.93;99001.03;4447604;32;33505;-65
2021/12/29 01:55:59;;;;;;;;;;;;;;;3.92;72.32;99008.44;4464556;32;32653;-65
2021/12/29 01:58:26;;;;;;;;;;;;;;;3.79;73.33;99016.22;4465033;32;33840;-64
2021/12/29 02:00:54;;;;;;;;;;;;;;;3.78;73.12;99009.31;4466258;32;34781;-66
2021/12/29 02:03:22;;;;;;;;;;;;;;;4.10;72.16;99009.50;4484461;26;32751;-86
2021/12/29 02:05:49;;;;;;;;;;;;;;;4.21;71.75;99009.22;4476496;32;35166;-85
2021/12/29 02:08:23;;;;;;;;;;;;;;;4.40;71.16;99006.03;4487356;26;34218;-66
2021/12/29 02:10:51;;;;;;;;;;;;;;;4.49;70.86;98999.75;4476870;32;34328;-66
2021/12/29 02:13:18;;;;;;;;;;;;;;;4.55;70.92;99008.59;4483435;32;34012;-66
2021/12/29 02:15:46;;;;;;;;;;;;;;;4.81;70.03;98999.75;4482493;32;33886;-63
2021/12/29 02:18:15;;;;;;;;;;;;;;;4.83;70.13;99000.72;4461714;32;34890;-66
2021/12/29 02:20:45;;;;;;;;;;;;;;;4.88;69.90;99005.28;4484250;32;34875;-64
2021/12/29 02:23:20;;;;;;;;;;;;;;;5.08;69.27;99008.03;4447468;32;32534;-65
2021/12/29 02:25:51;;;;;;;;;;;;;;;4.89;69.63;99012.19;4458532;32;32476;-64
2021/12/29 02:28:40;;;;;;;;;;;;;;;4.86;69.57;99012.03;4472794;32;34890;-66
2021/12/29 02:31:08;;;;;;;;;;;;;;;4.90;69.56;99001.13;4471342;32;34230;-66
2021/12/29 02:33:35;;;;;;;;;;;;;;;4.69;70.12;99002.53;4475415;32;34079;-65
2021/12/29 02:36:03;;;;;;;;;;;;;;;4.87;69.66;99003.53;4465289;32;32341;-66
2021/12/29 02:38:35;;;;;;;;;;;;;;;4.82;69.52;99002.41;4461641;32;34063;-66
2021/12/29 02:41:04;;;;;;;;;;;;;;;4.81;69.44;99005.78;4471875;32;34480;-65
2021/12/29 02:43:36;;;;;;;;;;;;;;;4.93;69.21;99016.69;4471952;32;34359;-66
2021/12/29 02:46:06;;;;;;;;;;;;;;;4.87;69.35;99008.69;4475598;32;34677;-64
2021/12/29 02:48:37;;;;;;;;;;;;;;;4.84;69.80;99008.50;4465915;32;32344;-65
2021/12/29 02:51:07;;;;;;;;;;;;;;;5.10;68.77;99011.59;4470845;32;35327;-66
2021/12/29 02:53:35;;;;;;;;;;;;;;;5.01;69.16;99006.84;4485595;32;33128;-65
2021/12/29 02:56:03;;;;;;;;;;;;;;;5.05;68.95;99013.91;4471798;32;34119;-65
2021/12/29 02:58:31;;;;;;;;;;;;;;;4.99;69.04;99012.72;4474645;32;34326;-67
2021/12/29 03:01:01;;;;;;;;;;;;;;;4.77;69.66;99013.22;4470983;32;34174;-65
2021/12/29 03:03:30;;;;;;;;;;;;;;;5.00;69.02;99014.47;4468673;32;31204;-66
2021/12/29 03:05:57;;;;;;;;;;;;;;;4.68;70.09;99014.47;4472967;32;34405;-66
2021/12/29 03:08:25;;;;;;;;;;;;;;;4.84;69.58;99005.94;4471228;32;33891;-65
2021/12/29 03:10:53;;;;;;;;;;;;;;;5.03;68.87;99015.50;4474349;32;34129;-67
2021/12/29 03:13:25;;;;;;;;;;;;;;;5.26;68.07;99009.03;4476510;32;34227;-66
2021/12/29 03:15:53;;;;;;;;;;;;;;;5.07;68.56;99001.16;4472559;32;34331;-65
2021/12/29 03:18:20;;;;;;;;;;;;;;;5.14;68.32;99003.25;4470932;32;33994;-66
2021/12/29 03:20:47;;;;;;;;;;;;;;;4.86;69.19;98994.06;4474929;32;34362;-66
2021/12/29 03:23:15;;;;;;;;;;;;;;;4.81;69.36;99003.22;4467479;32;33171;-66
2021/12/29 03:25:42;;;;;;;;;;;;;;;4.83;69.74;99005.84;4471197;32;34943;-66
2021/12/29 03:28:09;;;;;;;;;;;;;;;4.80;69.37;99001.44;4472274;32;34317;-67
2021/12/29 03:30:38;;;;;;;;;;;;;;;4.99;68.90;99007.56;4474000;32;34214;-64
2021/12/29 03:33:06;;;;;;;;;;;;;;;4.75;69.42;98992.59;4472847;32;33531;-63
2021/12/29 03:35:38;;;;;;;;;;;;;;;4.35;71.16;98990.41;4473481;32;34163;-66
2021/12/29 03:38:06;;;;;;;;;;;;;;;4.76;69.72;98994.37;4478622;32;34644;-65
2021/12/29 03:40:36;;;;;;;;;;;;;;;4.27;70.91;99009.63;4481040;32;34891;-66
2021/12/29 03:43:04;;;;;;;;;;;;;;;4.39;70.83;99010.28;4474154;32;32471;-64
2021/12/29 03:45:32;;;;;;;;;;;;;;;4.78;69.72;99013.28;4467024;32;34845;-65
2021/12/29 03:47:59;;;;;;;;;;;;;;;4.50;70.42;99005.75;4471583;32;34073;-66
2021/12/29 03:50:26;;;;;;;;;;;;;;;4.34;70.68;99019.41;4473994;32;34072;-64
2021/12/29 03:52:53;;;;;;;;;;;;;;;3.79;72.53;99023.91;4475939;32;34017;-67
2021/12/29 03:55:21;;;;;;;;;;;;;;;4.15;72.24;99025.16;4469876;32;34885;-64
2021/12/29 03:57:48;;;;;;;;;;;;;;;4.84;69.72;99023.00;4461224;32;33068;-64
2021/12/29 04:00:16;;;;;;;;;;;;;;;4.83;69.68;99006.75;4482807;32;34320;-64
2021/12/29 04:02:43;;;;;;;;;;;;;;;4.55;70.22;99003.47;4474607;32;32879;-64
2021/12/29 04:05:13;;;;;;;;;;;;;;;4.60;70.25;99015.75;4473027;32;32666;-64
2021/12/29 04:07:40;;;;;;;;;;;;;;;4.73;69.92;99013.06;4476417;32;33966;-65
2021/12/29 04:10:08;;;;;;;;;;;;;;;4.70;70.04;99014.56;4468630;32;34963;-66
2021/12/29 04:12:36;;;;;;;;;;;;;;;4.69;70.09;99012.78;4469891;32;33307;-66
2021/12/29 04:15:03;;;;;;;;;;;;;;;4.22;71.56;99023.84;4470982;32;34527;-64
2021/12/29 04:17:37;;;;;;;;;;;;;;;4.41;71.16;99031.78;4465942;32;34225;-64
2021/12/29 04:22:51;;;;;;;;;;;;;;;4.01;72.42;99034.59;4469573;32;34374;-67
2021/12/29 04:25:23;;;;;;;;;;;;;;;4.07;72.17;99040.06;4471010;32;34099;-63
2021/12/29 04:27:54;;;;;;;;;;;;;;;3.56;74.15;99049.03;4482355;32;34940;-63
2021/12/29 04:30:22;;;;;;;;;;;;;;;3.40;74.97;99046.31;4476779;32;34730;-66
2021/12/29 04:32:52;;;;;;;;;;;;;;;3.62;74.51;99039.16;4472983;32;31864;-65
2021/12/29 04:35:22;;;;;;;;;;;;;;;4.52;70.96;99035.81;4475340;32;33156;-63
2021/12/29 04:37:50;;;;;;;;;;;;;;;4.75;70.23;99038.78;4470899;32;34243;-65
2021/12/29 04:40:17;;;;;;;;;;;;;;;4.73;70.22;99035.25;4456241;32;34268;-64
2021/12/29 04:42:44;;;;;;;;;;;;;;;4.96;69.75;99038.19;4476790;32;33768;-63
2021/12/29 04:45:11;;;;;;;;;;;;;;;4.75;70.09;99035.31;4471101;32;33793;-64
2021/12/29 04:47:41;;;;;;;;;;;;;;;4.69;70.10;99044.47;4479323;32;33827;-65
2021/12/29 04:50:18;;;;;;;;;;;;;;;4.22;71.30;99049.47;4471293;32;34600;-64
2021/12/29 04:52:46;;;;;;;;;;;;;;;4.04;72.20;99051.84;4481879;32;33411;-64
2021/12/29 04:55:13;;;;;;;;;;;;;;;4.22;71.62;99050.34;4473554;32;34370;-65
2021/12/29 04:57:40;;;;;;;;;;;;;;;4.56;70.15;99047.16;4470764;32;34040;-66
2021/12/29 05:00:08;;;;;;;;;;;;;;;4.44;70.76;99047.34;4462492;32;32941;-65
2021/12/29 05:02:35;;;;;;;;;;;;;;;4.64;70.33;99045.88;4481450;32;33992;-64
2021/12/29 05:05:17;;;;;;;;;;;;;;;4.67;70.32;99055.44;4476144;32;34184;-64
2021/12/29 05:10:30;;;;;;;;;;;;;;;4.20;71.67;99045.94;4470233;32;34329;-67
2021/12/29 05:12:58;;;;;;;;;;;;;;;4.62;70.51;99046.63;4474496;32;33735;-65
2021/12/29 05:15:25;;;;;;;;;;;;;;;4.64;70.41;99040.75;4476295;32;33988;-66
2021/12/29 05:17:52;;;;;;;;;;;;;;;4.53;70.84;99047.84;4473654;32;34842;-66
2021/12/29 05:20:20;;;;;;;;;;;;;;;4.76;70.12;99045.69;4472723;32;34678;-66
2021/12/29 05:22:47;;;;;;;;;;;;;;;4.77;69.91;99047.47;4478938;32;34096;-63
2021/12/29 05:25:14;;;;;;;;;;;;;;;4.81;69.98;99043.34;4474003;32;34172;-66
2021/12/29 05:27:42;;;;;;;;;;;;;;;4.90;69.59;99039.63;4463392;32;34288;-64
2021/12/29 05:30:09;;;;;;;;;;;;;;;4.94;69.59;99048.37;4470346;32;34980;-65
2021/12/29 05:32:37;;;;;;;;;;;;;;;5.10;69.16;99047.56;4478379;32;32885;-67
2021/12/29 05:35:04;;;;;;;;;;;;;;;5.20;68.72;99052.38;4476744;32;33800;-67
2021/12/29 05:37:35;;;;;;;;;;;;;;;5.05;69.11;99043.84;4472640;32;34997;-67
2021/12/29 05:40:03;;;;;;;;;;;;;;;5.11;68.88;99050.16;4442329;32;31933;-66
2021/12/29 05:42:33;;;;;;;;;;;;;;;5.14;68.76;99059.75;4469536;32;33243;-66
2021/12/29 05:45:04;;;;;;;;;;;;;;;5.49;67.20;99058.19;4472761;32;33535;-64
2021/12/29 05:47:32;;;;;;;;;;;;;;;5.51;66.87;99071.97;4479333;32;34945;-64
2021/12/29 05:50:00;;;;;;;;;;;;;;;5.53;66.89;99067.81;4477409;32;34365;-63
2021/12/29 05:52:28;;;;;;;;;;;;;;;5.55;66.75;99063.63;4468895;32;33358;-63
2021/12/29 05:54:55;;;;;;;;;;;;;;;5.45;66.93;99069.09;4480336;32;34246;-65
2021/12/29 05:57:22;;;;;;;;;;;;;;;5.48;66.78;99071.81;4469923;32;34603;-63
2021/12/29 05:59:49;;;;;;;;;;;;;;;5.56;66.41;99070.50;4477243;32;35123;-64
2021/12/29 06:02:17;;;;;;;;;;;;;;;5.47;66.65;99070.94;4473457;32;32259;-64
2021/12/29 06:04:45;;;;;;;;;;;;;;;5.64;66.19;99069.25;4472593;32;33540;-63
2021/12/29 06:07:13;;;;;;;;;;;;;;;5.99;64.74;99077.94;4468934;32;34908;-64
2021/12/29 06:09:41;;;;;;;;;;;;;;;6.01;64.15;99071.19;4468190;32;33995;-63
2021/12/29 06:12:08;;;;;;;;;;;;;;;5.46;65.67;99079.41;4480141;32;33457;-65
2021/12/29 06:14:35;;;;;;;;;;;;;;;5.39;66.79;99071.31;4474638;32;33631;-65
2021/12/29 06:17:03;;;;;;;;;;;;;;;5.04;68.20;99078.00;4478276;32;34750;-63
2021/12/29 06:19:32;;;;;;;;;;;;;;;5.50;66.71;99080.47;4470775;32;34808;-62
2021/12/29 06:21:59;;;;;;;;;;;;;;;5.31;67.05;99081.16;4455819;32;33926;-64
2021/12/29 06:24:26;;;;;;;;;;;;;;;4.72;68.85;99082.22;4461396;32;33533;-63
2021/12/29 06:26:54;;;;;;;;;;;;;;;5.19;67.63;99089.09;4471859;32;34158;-66
2021/12/29 06:29:21;;;;;;;;;;;;;;;5.57;65.95;99085.16;4464953;32;32336;-65
2021/12/29 06:31:49;;;;;;;;;;;;;;;5.42;66.48;99092.03;4471169;32;33782;-66
2021/12/29 06:34:16;;;;;;;;;;;;;;;5.25;66.88;99084.31;4472277;32;35025;-65
2021/12/29 06:36:44;;;;;;;;;;;;;;;4.63;68.74;99079.16;4471684;32;34382;-65
2021/12/29 06:39:11;;;;;;;;;;;;;;;4.38;70.89;99082.88;4473284;32;33969;-67
2021/12/29 06:41:38;;;;;;;;;;;;;;;5.05;68.26;99079.78;4473721;32;33745;-66
2021/12/29 06:44:05;;;;;;;;;;;;;;;5.12;67.72;99093.03;4471964;32;34257;-66
2021/12/29 06:46:34;;;;;;;;;;;;;;;4.97;68.07;99091.31;4474269;32;33970;-66
2021/12/29 06:49:01;;;;;;;;;;;;;;;4.96;68.13;99094.66;4474048;32;34245;-66
2021/12/29 06:51:29;;;;;;;;;;;;;;;3.97;72.72;99117.22;4480731;32;33683;-64
2021/12/29 06:53:56;;;;;;;;;;;;;;;3.69;72.82;99119.78;4473591;32;34751;-63
2021/12/29 06:56:23;;;;;;;;;;;;;;;2.33;79.27;99120.59;4476252;32;34872;-65
2021/12/29 06:58:50;;;;;;;;;;;;;;;2.31;81.37;99123.03;4475843;32;33891;-65
2021/12/29 07:01:17;;;;;;;;;;;;;;;2.37;80.88;99120.00;4481722;32;33927;-66
2021/12/29 07:03:45;;;;;;;;;;;;;;;2.71;79.53;99117.97;4476105;32;33943;-65
2021/12/29 07:06:12;;;;;;;;;;;;;;;3.65;75.58;99121.31;4481016;32;34023;-67
2021/12/29 07:08:40;;;;;;;;;;;;;;;3.58;75.39;99113.16;4464604;32;34371;-66
2021/12/29 07:11:07;;;;;;;;;;;;;;;2.86;78.75;99123.22;4479423;32;33526;-64
2021/12/29 07:13:34;;;;;;;;;;;;;;;3.85;74.33;99129.31;4476900;32;33771;-66
2021/12/29 07:16:02;;;;;;;;;;;;;;;3.92;73.93;99126.31;4470568;32;34447;-64
2021/12/29 07:18:29;;;;;;;;;;;;;;;3.73;74.86;99138.03;4472815;32;34012;-67
2021/12/29 07:20:57;;;;;;;;;;;;;;;2.33;80.39;99133.38;4482082;32;34209;-66
2021/12/29 07:23:24;;;;;;;;;;;;;;;2.23;82.12;99136.09;4470608;32;34739;-65
2021/12/29 07:25:51;;;;;;;;;;;;;;;3.32;77.27;99141.47;4470892;32;34125;-66
2021/12/29 07:28:18;;;;;;;;;;;;;;;3.31;76.97;99144.81;4470474;32;34798;-63
2021/12/29 07:30:45;;;;;;;;;;;;;;;3.00;78.75;99148.78;4465021;32;33335;-64
2021/12/29 07:33:13;;;;;;;;;;;;;;;3.33;76.75;99147.47;4476115;32;34101;-63
2021/12/29 07:35:40;;;;;;;;;;;;;;;3.22;77.38;99148.47;4471402;32;32879;-62
2021/12/29 07:38:07;;;;;;;;;;;;;;;1.96;81.95;99151.34;4475736;32;34166;-63
2021/12/29 07:40:35;;;;;;;;;;;;;;;1.66;84.69;99161.25;4457092;32;33591;-63
2021/12/29 07:43:02;;;;;;;;;;;;;;;3.12;78.65;99155.56;4483461;32;34573;-65
2021/12/29 07:45:31;;;;;;;;;;;;;;;3.24;77.51;99152.88;4475275;32;34043;-65
2021/12/29 07:48:00;;;;;;;;;;;;;;;2.25;81.53;99160.09;4479823;32;34828;-62
2021/12/29 07:50:27;;;;;;;;;;;;;;;2.16;82.65;99161.25;4470302;32;34043;-65
2021/12/29 07:52:58;;;;;;;;;;;;;;;2.94;79.39;99173.19;4469642;32;35004;-65
2021/12/29 07:55:25;;;;;;;;;;;;;;;3.67;76.54;99165.81;4471113;32;35168;-63
2021/12/29 07:57:52;;;;;;;;;;;;;;;3.51;77.39;99168.22;4471562;32;34300;-66
2021/12/29 08:00:20;;;;;;;;;;;;;;;2.04;82.59;99164.63;4473753;32;34141;-67
2021/12/29 08:02:47;;;;;;;;;;;;;;;2.61;80.92;99170.97;4470342;32;33875;-65
2021/12/29 08:05:15;;;;;;;;;;;;;;;3.25;78.27;99164.03;4471691;32;34157;-66
2021/12/29 08:07:48;;;;;;;;;;;;;;;2.71;80.19;99163.13;4480893;32;34905;-63
2021/12/29 08:10:16;;;;;;;;;;;;;;;2.86;79.91;99170.91;4460461;32;33355;-65
2021/12/29 08:12:43;;;;;;;;;;;;;;;3.05;79.26;99165.31;4457686;32;34048;-63
2021/12/29 08:15:11;;;;;;;;;;;;;;;2.94;79.77;99170.63;4469838;32;33612;-65
2021/12/29 08:17:40;;;;;;;;;;;;;;;3.08;78.80;99175.75;4479006;32;34048;-65
2021/12/29 08:20:07;;;;;;;;;;;;;;;2.31;82.00;99180.94;4473893;32;33460;-65
2021/12/29 08:22:34;;;;;;;;;;;;;;;2.12;83.18;99189.91;4476647;32;34845;-63
2021/12/29 08:25:02;;;;;;;;;;;;;;;2.23;83.35;99188.09;4483827;32;33432;-65
2021/12/29 08:27:29;;;;;;;;;;;;;;;2.45;82.53;99195.53;4467652;32;33658;-68
2021/12/29 08:29:56;;;;;;;;;;;;;;;2.83;81.67;99199.72;4477419;32;31706;-67
2021/12/29 08:32:24;;;;;;;;;;;;;;;2.95;80.84;99204.75;4477273;32;34906;-67
2021/12/29 08:34:51;;;;;;;;;;;;;;;3.07;80.28;99209.78;4477634;32;34955;-65
2021/12/29 08:37:18;;;;;;;;;;;;;;;2.81;81.43;99211.53;4476515;32;33218;-66
2021/12/29 08:39:46;;;;;;;;;;;;;;;3.13;80.17;99205.97;4473328;32;33284;-62
2021/12/29 08:42:13;;;;;;;;;;;;;;;3.90;77.72;99209.88;4464652;32;34870;-66
2021/12/29 08:44:42;;;;;;;;;;;;;;;2.79;80.49;99220.78;4472237;32;34085;-64
2021/12/29 08:47:10;;;;;;;;;;;;;;;2.44;82.85;99221.00;4459952;32;34822;-64
2021/12/29 08:49:37;;;;;;;;;;;;;;;3.13;80.99;99221.31;4469853;32;33547;-66
2021/12/29 08:52:05;;;;;;;;;;;;;;;2.73;81.18;99228.06;4475803;32;34002;-63
2021/12/29 08:54:34;;;;;;;;;;;;;;;2.65;82.00;99229.22;4461443;32;35031;-65
2021/12/29 08:57:02;;;;;;;;;;;;;;;2.68;82.49;99237.09;4465465;32;33919;-64
2021/12/29 08:59:29;;;;;;;;;;;;;;;2.37;83.52;99232.47;4471140;32;33967;-63
2021/12/29 09:01:56;;;;;;;;;;;;;;;2.85;81.83;99228.84;4476893;32;34960;-64
2021/12/29 09:04:24;;;;;;;;;;;;;;;2.68;82.28;99230.28;4476036;32;33754;-63
2021/12/29 09:06:52;;;;;;;;;;;;;;;3.34;79.81;99214.13;4478998;32;34862;-64
2021/12/29 09:09:19;;;;;;;;;;;;;;;3.67;77.95;99222.16;4476874;32;33817;-63
2021/12/29 09:11:47;;;;;;;;;;;;;;;3.68;77.67;99221.38;4467665;32;34460;-63
2021/12/29 09:14:14;;;;;;;;;;;;;;;4.41;75.52;99221.53;4474618;32;34271;-64
2021/12/29 09:16:43;;;;;;;;;;;;;;;4.58;73.97;99214.84;4469916;32;33453;-64
2021/12/29 09:19:13;;;;;;;;;;;;;;;4.95;73.51;99210.97;4471040;32;33324;-64
2021/12/29 09:21:43;;;;;;;;;;;;;;;5.21;72.60;99208.16;4475245;32;34093;-64
2021/12/29 09:24:11;;;;;;;;;;;;;;;5.01;73.52;99201.91;4478589;32;34423;-66
2021/12/29 09:26:38;;;;;;;;;;;;;;;4.27;75.98;99207.00;4483011;32;34554;-66
2021/12/29 09:29:05;;;;;;;;;;;;;;;4.32;75.77;99203.91;4469850;32;33029;-66
2021/12/29 09:31:32;;;;;;;;;;;;;;;5.20;73.03;99192.72;4476349;32;34243;-63
2021/12/29 09:34:00;;;;;;;;;;;;;;;5.15;72.88;99183.84;4469728;32;34009;-63
2021/12/29 09:36:27;;;;;;;;;;;;;;;4.51;74.62;99187.06;4479980;32;34808;-64
2021/12/29 09:38:54;;;;;;;;;;;;;;;4.38;75.12;99190.56;4472128;32;33446;-64
2021/12/29 09:41:21;;;;;;;;;;;;;;;5.00;73.43;99174.47;4477864;32;32273;-62
2021/12/29 09:43:49;;;;;;;;;;;;;;;4.43;76.00;99173.78;4475295;32;34980;-64
2021/12/29 09:46:17;;;;;;;;;;;;;;;4.14;77.85;99179.75;4473762;32;33654;-62
2021/12/29 09:48:45;;;;;;;;;;;;;;;4.15;78.08;99176.38;4454595;32;31005;-64
2021/12/29 09:51:13;;;;;;;;;;;;;;;3.71;80.65;99180.59;4473150;32;34084;-63
2021/12/29 09:53:41;;;;;;;;;;;;;;;3.82;80.79;99185.47;4469686;32;34065;-64
2021/12/29 09:56:10;;;;;;;;;;;;;;;3.63;80.96;99181.78;4467574;32;33743;-63
2021/12/29 09:58:37;;;;;;;;;;;;;;;3.74;81.52;99183.31;4468746;32;34071;-63
2021/12/29 10:01:06;;;;;;;;;;;;;;;3.91;81.23;99171.53;4471981;32;33685;-64
2021/12/29 10:03:34;;;;;;;;;;;;;;;3.87;80.45;99164.47;4475882;32;34549;-64
2021/12/29 10:06:02;;;;;;;;;;;;;;;4.25;78.79;99165.00;4468328;32;34532;-64
2021/12/29 10:08:34;;;;;;;;;;;;;;;3.99;79.96;99168.56;4481959;32;33789;-63
2021/12/29 10:11:03;;;;;;;;;;;;;;;4.04;80.25;99162.94;4468829;32;34871;-64
2021/12/29 10:13:34;;;;;;;;;;;;;;;4.33;79.20;99156.09;4462241;32;32376;-66
2021/12/29 10:16:03;;;;;;;;;;;;;;;4.14;80.00;99172.06;4466489;32;34186;-65
2021/12/29 10:18:31;;;;;;;;;;;;;;;3.93;80.34;99161.41;4476449;32;33384;-65
2021/12/29 10:21:03;;;;;;;;;;;;;;;4.35;79.09;99154.50;4474771;32;34053;-65
2021/12/29 10:23:31;;;;;;;;;;;;;;;4.81;77.20;99161.41;4469641;32;35274;-64
2021/12/29 10:26:09;;;;;;;;;;;;;;;4.78;77.80;99156.09;4475168;32;34453;-65
2021/12/29 10:28:37;;;;;;;;;;;;;;;5.08;76.67;99159.50;4469933;32;32988;-64
2021/12/29 10:31:16;;;;;;;;;;;;;;;4.87;77.34;99159.19;4476607;32;34528;-64
2021/12/29 10:33:48;;;;;;;;;;;;;;;4.94;78.15;99158.72;4469563;32;35181;-63
2021/12/29 10:36:17;;;;;;;;;;;;;;;5.04;77.38;99170.41;4477979;32;34807;-64
2021/12/29 10:38:47;;;;;;;;;;;;;;;5.45;75.39;99164.13;4483723;32;32438;-63
2021/12/29 10:41:14;;;;;;;;;;;;;;;5.29;75.63;99168.44;4474173;32;34171;-64
2021/12/29 10:43:49;;;;;;;;;;;;;;;5.35;76.19;99169.53;4474669;32;35003;-64
2021/12/29 10:46:18;;;;;;;;;;;;;;;6.01;73.35;99162.87;4471123;32;34218;-65
2021/12/29 10:48:46;;;;;;;;;;;;;;;6.27;72.20;99164.19;4470812;32;33310;-63
2021/12/29 10:51:13;;;;;;;;;;;;;;;6.03;72.89;99162.13;4469561;32;34198;-66
2021/12/29 10:53:41;;;;;;;;;;;;;;;6.15;72.41;99161.00;4469557;32;33666;-64
2021/12/29 10:56:25;;;;;;;;;;;;;;;5.42;75.42;99158.81;4458017;32;33603;-63
2021/12/29 10:58:53;;;;;;;;;;;;;;;4.42;80.19;99156.59;4472780;32;33249;-63
2021/12/29 11:01:21;;;;;;;;;;;;;;;3.67;82.69;99181.19;4458587;32;32419;-63
2021/12/29 11:03:49;;;;;;;;;;;;;;;3.67;83.43;99181.19;4471945;32;34030;-66
2021/12/29 11:06:18;;;;;;;;;;;;;;;3.30;84.88;99178.91;4480464;32;34680;-67
2021/12/29 11:08:49;;;;;;;;;;;;;;;3.38;85.14;99175.91;4474276;32;33097;-62
2021/12/29 11:11:17;;;;;;;;;;;;;;;3.73;83.75;99175.56;4471529;32;33926;-66
2021/12/29 11:13:45;;;;;;;;;;;;;;;3.85;82.88;99175.44;4475662;32;34912;-66
2021/12/29 11:16:17;;;;;;;;;;;;;;;3.85;83.07;99176.31;4453030;32;33757;-65
2021/12/29 11:18:50;;;;;;;;;;;;;;;3.64;84.46;99175.88;4460256;32;33394;-64
2021/12/29 11:21:28;;;;;;;;;;;;;;;3.77;83.99;99171.47;4477527;32;34023;-62
2021/12/29 11:23:56;;;;;;;;;;;;;;;4.03;82.89;99171.41;4469859;32;33914;-64
2021/12/29 11:26:27;;;;;;;;;;;;;;;4.45;81.36;99169.63;4475283;32;34841;-68
2021/12/29 11:29:01;;;;;;;;;;;;;;;3.94;83.14;99182.00;4478762;32;32785;-65
2021/12/29 11:31:32;;;;;;;;;;;;;;;3.75;83.54;99171.41;4475058;32;32947;-66
2021/12/29 11:34:10;;;;;;;;;;;;;;;3.37;84.84;99174.16;4472665;32;33203;-65
2021/12/29 11:36:37;;;;;;;;;;;;;;;3.21;85.99;99175.75;4475725;32;34797;-66
2021/12/29 11:39:05;;;;;;;;;;;;;;;3.00;86.09;99174.38;4471611;32;34129;-69
2021/12/29 11:41:33;;;;;;;;;;;;;;;2.93;86.64;99176.50;4461344;32;34844;-64
2021/12/29 11:44:01;;;;;;;;;;;;;;;2.78;87.00;99179.75;4481137;32;34949;-64
2021/12/29 11:46:28;;;;;;;;;;;;;;;2.81;86.90;99185.09;4476319;32;35056;-68
2021/12/29 11:48:55;;;;;;;;;;;;;;;2.92;86.76;99190.09;4483277;32;33541;-66
2021/12/29 11:51:29;;;;;;;;;;;;;;;2.95;86.34;99195.44;4471229;32;34907;-67
2021/12/29 11:54:03;;;;;;;;;;;;;;;3.07;85.71;99195.34;4471162;32;34994;-64
2021/12/29 11:56:38;;;;;;;;;;;;;;;2.93;86.15;99196.97;4467604;32;34190;-65
2021/12/29 11:59:05;;;;;;;;;;;;;;;3.17;85.13;99199.38;4472513;32;33181;-64
2021/12/29 12:01:57;;;;;;;;;;;;;;;3.26;84.37;99191.38;4470259;32;34780;-64
2021/12/29 12:04:24;;;;;;;;;;;;;;;3.32;84.28;99197.78;4479753;32;34278;-65
2021/12/29 12:06:59;;;;;;;;;;;;;;;3.37;84.39;99200.63;4481540;32;34127;-64
2021/12/29 12:09:27;;;;;;;;;;;;;;;3.61;82.98;99206.44;4471040;32;33386;-64
2021/12/29 12:11:55;;;;;;;;;;;;;;;3.67;82.88;99201.69;4477892;32;34494;-65
2021/12/29 12:14:33;;;;;;;;;;;;;;;3.93;82.17;99200.72;4475597;32;34594;-65
2021/12/29 12:17:07;;;;;;;;;;;;;;;3.97;82.11;99212.03;4472208;32;34238;-66
2021/12/29 12:19:34;;;;;;;;;;;;;;;4.18;81.82;99211.59;4480145;32;33505;-65
2021/12/29 12:22:04;;;;;;;;;;;;;;;4.06;81.75;99210.03;4471825;32;34394;-65
2021/12/29 12:24:31;;;;;;;;;;;;;;;4.24;80.90;99206.81;4472270;32;34732;-65
2021/12/29 12:27:00;;;;;;;;;;;;;;;4.40;80.88;99212.06;4472625;32;34419;-65
2021/12/29 12:29:29;;;;;;;;;;;;;;;4.10;80.86;99204.31;4475060;32;33295;-65
2021/12/29 12:32:00;;;;;;;;;;;;;;;3.79;82.72;99201.56;4483081;32;34905;-64
2021/12/29 12:34:28;;;;;;;;;;;;;;;3.35;84.74;99208.22;4465955;32;32470;-68
2021/12/29 12:36:55;;;;;;;;;;;;;;;3.64;83.84;99216.84;4460562;32;35061;-65
2021/12/29 12:39:22;;;;;;;;;;;;;;;3.69;83.92;99210.34;4474211;32;33294;-65
2021/12/29 12:41:53;;;;;;;;;;;;;;;3.76;83.91;99205.59;4476779;32;34830;-64
2021/12/29 12:44:34;;;;;;;;;;;;;;;3.70;84.22;99212.09;4465405;32;34939;-64
2021/12/29 12:47:12;;;;;;;;;;;;;;;4.01;83.88;99219.12;4470681;32;33884;-65
2021/12/29 12:49:44;;;;;;;;;;;;;;;4.09;83.42;99217.91;4471057;32;33923;-64
2021/12/29 12:52:15;;;;;;;;;;;;;;;4.46;81.84;99217.56;4475223;32;33916;-65
2021/12/29 12:54:54;;;;;;;;;;;;;;;4.84;79.88;99213.78;4482512;32;34154;-64
2021/12/29 12:57:35;;;;;;;;;;;;;;;4.81;80.16;99213.63;4470606;32;33950;-65
2021/12/29 13:00:19;;;;;;;;;;;;;;;5.03;79.46;99220.84;4470846;32;34789;-65
2021/12/29 13:02:51;;;;;;;;;;;;;;;4.71;79.56;99225.03;4470097;32;34265;-65
2021/12/29 13:05:25;;;;;;;;;;;;;;;4.17;82.13;99230.31;4473459;32;33235;-63
2021/12/29 13:08:04;;;;;;;;;;;;;;;4.17;82.01;99240.56;4475599;32;34188;-63
2021/12/29 13:10:36;;;;;;;;;;;;;;;4.12;82.12;99236.03;4480092;32;32947;-63
2021/12/29 13:13:10;;;;;;;;;;;;;;;4.81;79.99;99234.16;4471530;32;33910;-64